»·PEaware :: N2570U KWJF-KVCV

N2570U :: KWJF-KVCV

FLIGHT INFORMATION

Flight Status: Arrived
Operator: Privately registered:
United States
More flights under this callsign
Pilot: Scott W. (31825)
Aircraft: PIPER PA-28 CHEROKEE ARCHER
(P28A)
More flights by this aircraft type
Origin: KWJF Gen Fox
United States
Destination: KVCV Socal Logistics
United States
More flights between these airports :: More routes between these airports
Route:
File this flight plan on PilotEdge
Remarks:
Altitude:
(Current/Filed)
5,500ft
Speed:
(Current/Filed)
110kts
Departed: 24-Nov-20 05:06 PM
Arrived: 24-Nov-20 05:34 PM
Distance/Time
Traveled:
43nm/0:27
Distance/Time
To Go:
Arrived

Flight Plot

Page will automatically refresh every two minutes.


Map Options




Map Legend


Flown Route
Filed Route
Departure Airport
Arrival Airport
Navaid (VOR, NDB)
Fix

Horizontal Profiles

Position Reports

Time Latitude Longitude Heading Altitude Ground
Speed
24-Nov-20 16:47 34.738910 -118.218691 251 2342ft 0kts
24-Nov-20 16:48 34.738910 -118.218691 251 2342ft 0kts
24-Nov-20 16:49 34.738910 -118.218691 251 2342ft 0kts
24-Nov-20 16:50 34.738910 -118.218691 251 2342ft 0kts
24-Nov-20 16:51 34.738910 -118.218691 251 2342ft 0kts
24-Nov-20 16:52 34.738910 -118.218691 251 2342ft 0kts
24-Nov-20 16:53 34.738910 -118.218691 251 2342ft 0kts
24-Nov-20 16:54 34.738910 -118.218691 251 2342ft 0kts
24-Nov-20 16:55 34.739524 -118.220682 251 2344ft 13kts
24-Nov-20 16:56 34.737668 -118.227556 250 2349ft 16kts
24-Nov-20 16:57 34.737011 -118.229583 342 2349ft 0kts
24-Nov-20 16:58 34.737011 -118.229583 342 2349ft 0kts
24-Nov-20 16:59 34.737011 -118.229583 342 2349ft 0kts
24-Nov-20 17:00 34.737011 -118.229583 342 2349ft 0kts
24-Nov-20 17:01 34.737011 -118.229583 342 2349ft 0kts
24-Nov-20 17:02 34.737012 -118.229583 342 2349ft 0kts
24-Nov-20 17:03 34.737275 -118.229669 341 2349ft 0kts
24-Nov-20 17:04 34.737286 -118.229673 341 2349ft 0kts
24-Nov-20 17:05 34.740132 -118.221633 72 2461ft 72kts
24-Nov-20 17:06 34.742367 -118.196999 91 3314ft 72kts
24-Nov-20 17:07 34.740486 -118.170043 91 4068ft 79kts
24-Nov-20 17:08 34.737700 -118.142356 93 4803ft 81kts
24-Nov-20 17:09 34.732204 -118.114247 100 5432ft 86kts
24-Nov-20 17:10 34.722906 -118.080811 106 5420ft 106kts
24-Nov-20 17:11 34.715119 -118.044531 90 5359ft 104kts
24-Nov-20 17:12 34.713795 -118.008498 95 5433ft 105kts
24-Nov-20 17:13 34.707852 -117.971451 97 5460ft 106kts
24-Nov-20 17:14 34.701282 -117.934287 99 5485ft 106kts
24-Nov-20 17:15 34.694147 -117.896822 99 5501ft 107kts
24-Nov-20 17:16 34.686590 -117.858565 100 5449ft 109kts
24-Nov-20 17:17 34.679135 -117.821449 100 5482ft 108kts
24-Nov-20 17:18 34.671363 -117.783149 100 5399ft 111kts
24-Nov-20 17:19 34.663547 -117.744797 100 5360ft 111kts
24-Nov-20 17:20 34.655903 -117.707291 99 5438ft 111kts
24-Nov-20 17:21 34.647930 -117.668356 99 5467ft 111kts
24-Nov-20 17:22 34.640086 -117.630107 99 5483ft 112kts
24-Nov-20 17:23 34.632060 -117.591073 100 5462ft 115kts
24-Nov-20 17:24 34.624164 -117.553014 100 5297ft 115kts
24-Nov-20 17:25 34.616356 -117.515565 100 4877ft 114kts
24-Nov-20 17:26 34.608489 -117.477750 100 4359ft 115kts
24-Nov-20 17:27 34.600914 -117.441512 99 3883ft 96kts
24-Nov-20 17:28 34.600830 -117.415236 30 3538ft 74kts
24-Nov-20 17:29 34.620161 -117.408797 3 3339ft 72kts
24-Nov-20 17:30 34.639283 -117.408080 21 3210ft 66kts
24-Nov-20 17:31 34.636694 -117.388259 150 3097ft 75kts
24-Nov-20 17:32 34.616439 -117.386717 180 2819ft 57kts
24-Nov-20 17:33 34.610569 -117.385438 86 2827ft 0kts
24-Nov-20 17:34 34.610569 -117.385438 86 2827ft 0kts
24-Nov-20 17:35 34.610103 -117.384204 170 2828ft 10kts
24-Nov-20 17:36 34.604136 -117.384137 179 2836ft 30kts
24-Nov-20 17:37 34.596102 -117.383995 174 2852ft 21kts
24-Nov-20 17:38 34.591678 -117.380082 132 2864ft 20kts
24-Nov-20 17:39 34.589199 -117.377341 193 2869ft 8kts
24-Nov-20 17:40 34.587678 -117.375716 306 2870ft 6kts
24-Nov-20 17:41 34.587706 -117.375748 319 2870ft 0kts
24-Nov-20 17:42 34.587706 -117.375748 319 2870ft 0kts
24-Nov-20 17:43 34.587706 -117.375748 319 2870ft 0kts

Navigation Log

Ident Type
Flight plan parsing failed, navigation log unavailable